createdAt,value
2018-12-07T00:00:31.994Z,974.14
2018-12-07T00:01:32.017Z,974.08
2018-12-07T00:02:31.983Z,974.11
2018-12-07T00:03:31.986Z,974.14
2018-12-07T00:04:31.981Z,974.09
2018-12-07T00:05:31.973Z,974.10
2018-12-07T00:06:32.006Z,974.05
2018-12-07T00:07:31.974Z,974.10
2018-12-07T00:08:31.974Z,974.12
2018-12-07T00:09:31.971Z,974.08
2018-12-07T00:10:31.966Z,974.08
2018-12-07T00:11:31.990Z,974.04
2018-12-07T00:12:31.969Z,974.03
2018-12-07T00:13:31.989Z,974.05
2018-12-07T00:14:31.958Z,973.99
2018-12-07T00:15:31.959Z,974.02
2018-12-07T00:16:31.954Z,973.98
2018-12-07T00:17:31.986Z,973.98
2018-12-07T00:18:31.948Z,973.99
2018-12-07T00:19:31.950Z,974.01
2018-12-07T00:20:31.950Z,973.98
2018-12-07T00:21:31.975Z,973.89
2018-12-07T00:22:31.946Z,973.93
2018-12-07T00:23:31.966Z,973.94
2018-12-07T00:24:31.940Z,973.97
2018-12-07T00:25:31.938Z,973.91
2018-12-07T00:26:31.933Z,973.93
2018-12-07T00:27:31.959Z,973.95
2018-12-07T00:28:31.926Z,973.97
2018-12-07T00:29:31.930Z,973.93
2018-12-07T00:30:31.922Z,973.87
2018-12-07T00:31:31.914Z,973.84
2018-12-07T00:32:31.944Z,973.86
2018-12-07T00:33:31.923Z,973.84
2018-12-07T00:34:31.915Z,973.83
2018-12-07T00:35:31.914Z,973.90
2018-12-07T00:36:31.914Z,973.89
2018-12-07T00:37:31.940Z,973.91
2018-12-07T00:38:31.907Z,973.91
2018-12-07T00:39:31.902Z,973.87
2018-12-07T00:40:31.902Z,973.95
2018-12-07T00:41:31.898Z,973.97
2018-12-07T00:42:31.930Z,973.92
2018-12-07T00:43:31.893Z,973.98
2018-12-07T00:44:31.898Z,974.00
2018-12-07T00:45:31.893Z,973.96
2018-12-07T00:46:31.890Z,973.96
2018-12-07T00:47:31.912Z,973.95
2018-12-07T00:48:31.881Z,973.98
2018-12-07T00:49:31.883Z,973.96
2018-12-07T00:50:31.879Z,973.94
2018-12-07T00:51:31.883Z,973.93
2018-12-07T00:52:31.905Z,973.90
2018-12-07T00:53:31.874Z,973.88
2018-12-07T00:54:31.872Z,973.85
2018-12-07T00:55:31.871Z,973.85
2018-12-07T00:56:31.868Z,973.75
2018-12-07T00:57:31.890Z,973.81
2018-12-07T00:58:31.864Z,973.80
2018-12-07T00:59:31.859Z,973.76
2018-12-07T01:00:31.860Z,973.77
2018-12-07T01:01:31.863Z,973.77
2018-12-07T01:02:31.883Z,973.76
2018-12-07T01:03:31.849Z,973.79
2018-12-07T01:04:31.851Z,973.76
2018-12-07T01:05:31.898Z,973.78
2018-12-07T01:06:31.853Z,973.77
2018-12-07T01:07:31.871Z,973.76
2018-12-07T01:08:31.842Z,973.80
2018-12-07T01:09:31.845Z,973.77
2018-12-07T01:10:31.838Z,973.74
2018-12-07T01:11:31.841Z,973.74
2018-12-07T01:12:31.864Z,973.74
2018-12-07T01:13:31.833Z,973.75
2018-12-07T01:14:31.831Z,973.79
2018-12-07T01:15:31.827Z,973.77
2018-12-07T01:16:31.827Z,973.80
2018-12-07T01:17:31.848Z,973.77
2018-12-07T01:18:31.823Z,973.81
2018-12-07T01:19:31.820Z,973.79
2018-12-07T01:20:31.818Z,973.71
2018-12-07T01:21:31.845Z,973.73
2018-12-07T01:22:31.814Z,973.72
2018-12-07T01:23:31.810Z,973.67
2018-12-07T01:24:31.814Z,973.63
2018-12-07T01:25:31.807Z,973.65
2018-12-07T01:26:31.835Z,973.61
2018-12-07T01:27:31.808Z,973.59
2018-12-07T01:28:31.843Z,973.60
2018-12-07T01:29:31.800Z,973.59
2018-12-07T01:30:31.800Z,973.54
2018-12-07T01:31:31.796Z,973.55
2018-12-07T01:32:31.823Z,973.54
2018-12-07T01:33:31.794Z,973.52
2018-12-07T01:34:31.792Z,973.49
2018-12-07T01:35:31.787Z,973.52
2018-12-07T01:36:31.788Z,973.50
2018-12-07T01:37:31.813Z,973.43
2018-12-07T01:38:31.783Z,973.47
2018-12-07T01:39:31.781Z,973.40
2018-12-07T01:40:31.780Z,973.47
2018-12-07T01:41:33.376Z,973.45
2018-12-07T01:42:31.808Z,973.45
2018-12-07T01:43:31.772Z,973.47
2018-12-07T01:44:31.771Z,973.53
2018-12-07T01:45:31.774Z,973.51
2018-12-07T01:46:31.763Z,973.52
2018-12-07T01:47:31.796Z,973.50
2018-12-07T01:48:31.763Z,973.47
2018-12-07T01:49:31.759Z,973.52
2018-12-07T01:50:31.759Z,973.50
2018-12-07T01:51:31.750Z,973.42
2018-12-07T01:52:31.787Z,973.46
2018-12-07T01:53:31.751Z,973.45
2018-12-07T01:54:31.753Z,973.47
2018-12-07T01:55:31.748Z,973.48
2018-12-07T01:56:31.745Z,973.44
2018-12-07T01:57:31.772Z,973.45
2018-12-07T01:58:31.744Z,973.41
2018-12-07T01:59:31.742Z,973.43
2018-12-07T02:00:31.739Z,973.48
2018-12-07T02:01:31.736Z,973.39
2018-12-07T02:02:31.768Z,973.44
2018-12-07T02:03:31.734Z,973.45
2018-12-07T02:04:31.732Z,973.40
2018-12-07T02:05:31.730Z,973.47
2018-12-07T02:06:31.729Z,973.39
2018-12-07T02:07:31.757Z,973.45
2018-12-07T02:08:31.724Z,973.46
2018-12-07T02:09:31.723Z,973.47
2018-12-07T02:10:31.719Z,973.44
2018-12-07T02:11:31.722Z,973.44
2018-12-07T02:12:31.749Z,973.38
2018-12-07T02:13:31.718Z,973.39
2018-12-07T02:14:31.710Z,973.36
2018-12-07T02:15:31.709Z,973.35
2018-12-07T02:16:31.712Z,973.28
2018-12-07T02:17:31.736Z,973.31
2018-12-07T02:18:31.704Z,973.28
2018-12-07T02:19:31.705Z,973.24
2018-12-07T02:20:31.704Z,973.14
2018-12-07T02:21:31.702Z,973.17
2018-12-07T02:22:31.729Z,973.11
2018-12-07T02:23:31.707Z,973.07
2018-12-07T02:24:31.696Z,973.04
2018-12-07T02:25:31.693Z,973.01
2018-12-07T02:26:31.693Z,972.98
2018-12-07T02:27:31.722Z,972.98
2018-12-07T02:28:31.688Z,972.94
2018-12-07T02:29:31.685Z,972.95
2018-12-07T02:30:31.685Z,972.94
2018-12-07T02:31:31.705Z,972.95
2018-12-07T02:32:31.683Z,972.94
2018-12-07T02:33:31.710Z,972.92
2018-12-07T02:34:31.678Z,972.89
2018-12-07T02:35:31.679Z,972.83
2018-12-07T02:36:31.675Z,972.79
2018-12-07T02:37:31.674Z,972.80
2018-12-07T02:38:31.700Z,972.81
2018-12-07T02:39:31.676Z,972.76
2018-12-07T02:40:31.666Z,972.68
2018-12-07T02:41:31.857Z,972.73
2018-12-07T02:42:31.665Z,972.66
2018-12-07T02:43:31.690Z,972.68
2018-12-07T02:44:31.664Z,972.65
2018-12-07T02:45:31.658Z,972.68
2018-12-07T02:46:31.663Z,972.64
2018-12-07T02:47:31.655Z,972.65
2018-12-07T02:48:31.683Z,972.68
2018-12-07T02:49:31.681Z,972.67
2018-12-07T02:50:31.653Z,972.63
2018-12-07T02:51:31.647Z,972.59
2018-12-07T02:52:31.645Z,972.71
2018-12-07T02:53:31.646Z,972.62
2018-12-07T02:54:31.668Z,972.68
2018-12-07T02:55:31.640Z,972.73
2018-12-07T02:56:31.636Z,972.71
2018-12-07T02:57:31.637Z,972.70
2018-12-07T02:58:31.632Z,972.62
2018-12-07T02:59:31.658Z,972.61
2018-12-07T03:00:31.632Z,972.59
2018-12-07T03:01:31.797Z,972.58
2018-12-07T03:02:31.626Z,972.56
2018-12-07T03:03:31.629Z,972.53
2018-12-07T03:04:31.660Z,972.52
2018-12-07T03:05:31.618Z,972.45
2018-12-07T03:06:31.624Z,972.52
2018-12-07T03:07:31.616Z,972.45
2018-12-07T03:08:31.614Z,972.45
2018-12-07T03:09:31.642Z,972.42
2018-12-07T03:10:31.688Z,972.40
2018-12-07T03:11:31.613Z,972.44
2018-12-07T03:12:31.606Z,972.43
2018-12-07T03:13:31.610Z,972.43
2018-12-07T03:14:31.634Z,972.40
2018-12-07T03:15:31.609Z,972.45
2018-12-07T03:16:31.605Z,972.41
2018-12-07T03:17:31.601Z,972.42
2018-12-07T03:18:31.601Z,972.39
2018-12-07T03:19:31.627Z,972.39
2018-12-07T03:20:31.597Z,972.34
2018-12-07T03:21:31.746Z,972.43
2018-12-07T03:22:32.289Z,972.43
2018-12-07T03:23:31.598Z,972.39
2018-12-07T03:24:31.616Z,972.38
2018-12-07T03:25:31.585Z,972.38
2018-12-07T03:26:31.585Z,972.41
2018-12-07T03:27:31.582Z,972.43
2018-12-07T03:28:31.585Z,972.34
2018-12-07T03:29:31.616Z,972.38
2018-12-07T03:30:31.578Z,972.39
2018-12-07T03:31:31.583Z,972.36
2018-12-07T03:32:31.578Z,972.29
2018-12-07T03:33:31.579Z,972.34
2018-12-07T03:34:31.605Z,972.37
2018-12-07T03:35:31.573Z,972.40
2018-12-07T03:36:31.572Z,972.38
2018-12-07T03:37:31.563Z,972.36
2018-12-07T03:38:31.566Z,972.31
2018-12-07T03:39:31.595Z,972.31
2018-12-07T03:40:31.562Z,972.30
2018-12-07T03:41:31.567Z,972.26
2018-12-07T03:42:31.559Z,972.22
2018-12-07T03:43:31.557Z,972.27
2018-12-07T03:44:31.588Z,972.23
2018-12-07T03:45:31.554Z,972.23
2018-12-07T03:46:31.551Z,972.21
2018-12-07T03:47:31.550Z,972.20
2018-12-07T03:48:31.553Z,972.12
2018-12-07T03:49:31.584Z,972.16
2018-12-07T03:50:31.547Z,972.15
2018-12-07T03:51:31.546Z,972.16
2018-12-07T03:52:31.539Z,972.10
2018-12-07T03:53:31.544Z,972.09
2018-12-07T03:54:31.566Z,972.06
2018-12-07T03:55:31.539Z,972.06
2018-12-07T03:56:31.538Z,972.06
2018-12-07T03:57:31.534Z,972.02
2018-12-07T03:58:31.534Z,972.00
2018-12-07T03:59:31.561Z,971.99
2018-12-07T04:00:31.531Z,971.98
2018-12-07T04:01:31.602Z,972.00
2018-12-07T04:02:31.531Z,971.96
2018-12-07T04:03:31.522Z,972.06
2018-12-07T04:04:31.558Z,972.01
2018-12-07T04:05:31.554Z,972.02
2018-12-07T04:06:31.521Z,971.97
2018-12-07T04:07:31.518Z,971.98
2018-12-07T04:08:31.517Z,971.98
2018-12-07T04:09:31.517Z,971.98
2018-12-07T04:10:31.546Z,971.98
2018-12-07T04:11:31.507Z,972.02
2018-12-07T04:12:31.512Z,971.97
2018-12-07T04:13:31.508Z,971.99
2018-12-07T04:14:31.578Z,972.01
2018-12-07T04:15:31.532Z,971.95
2018-12-07T04:16:31.503Z,972.01
2018-12-07T04:17:31.504Z,972.01
2018-12-07T04:18:31.499Z,971.97
2018-12-07T04:19:31.500Z,971.98
2018-12-07T04:20:31.528Z,972.03
2018-12-07T04:21:31.495Z,972.00
2018-12-07T04:22:31.491Z,972.00
2018-12-07T04:23:31.494Z,972.03
2018-12-07T04:24:31.491Z,971.99
2018-12-07T04:25:31.517Z,971.98
2018-12-07T04:26:31.493Z,971.98
2018-12-07T04:27:31.480Z,971.95
2018-12-07T04:28:31.484Z,971.95
2018-12-07T04:29:31.480Z,971.95
2018-12-07T04:30:31.513Z,971.93
2018-12-07T04:31:31.486Z,971.93
2018-12-07T04:32:31.486Z,971.96
2018-12-07T04:33:31.477Z,971.89
2018-12-07T04:34:31.478Z,971.94
2018-12-07T04:35:31.505Z,971.84
2018-12-07T04:36:31.472Z,971.81
2018-12-07T04:37:31.470Z,971.88
2018-12-07T04:38:31.468Z,971.83
2018-12-07T04:39:31.465Z,971.78
2018-12-07T04:40:31.497Z,971.78
2018-12-07T04:41:31.466Z,971.77
2018-12-07T04:42:31.507Z,971.73
2018-12-07T04:43:31.454Z,971.74
2018-12-07T04:44:31.462Z,971.70
2018-12-07T04:45:31.493Z,971.70
2018-12-07T04:46:31.457Z,971.67
2018-12-07T04:47:31.455Z,971.63
2018-12-07T04:48:31.453Z,971.59
2018-12-07T04:49:31.449Z,971.62
2018-12-07T04:50:31.475Z,971.61
2018-12-07T04:51:31.480Z,971.62
2018-12-07T04:52:31.446Z,971.62
2018-12-07T04:53:31.456Z,971.53
2018-12-07T04:54:31.447Z,971.59
2018-12-07T04:55:31.441Z,971.55
2018-12-07T04:56:31.470Z,971.55
2018-12-07T04:57:31.437Z,971.42
2018-12-07T04:58:31.437Z,971.53
2018-12-07T04:59:31.439Z,971.45
2018-12-07T05:00:31.441Z,971.53
2018-12-07T05:01:31.469Z,971.52
2018-12-07T05:02:31.428Z,971.49
2018-12-07T05:03:31.430Z,971.46
2018-12-07T05:04:31.431Z,971.47
2018-12-07T05:05:31.454Z,971.43
2018-12-07T05:06:31.429Z,971.42
2018-12-07T05:07:31.422Z,971.49
2018-12-07T05:08:31.431Z,971.53
2018-12-07T05:09:31.418Z,971.53
2018-12-07T05:10:31.449Z,971.52
2018-12-07T05:11:31.419Z,971.47
2018-12-07T05:12:31.419Z,971.52
2018-12-07T05:13:31.437Z,971.49
2018-12-07T05:14:31.410Z,971.52
2018-12-07T05:15:31.439Z,971.54
2018-12-07T05:16:31.411Z,971.53
2018-12-07T05:17:31.411Z,971.49
2018-12-07T05:18:31.406Z,971.50
2018-12-07T05:19:31.405Z,971.51
2018-12-07T05:20:31.433Z,971.52
2018-12-07T05:21:31.405Z,971.50
2018-12-07T05:22:31.400Z,971.52
2018-12-07T05:23:31.400Z,971.53
2018-12-07T05:24:31.400Z,971.53
2018-12-07T05:25:31.421Z,971.46
2018-12-07T05:26:31.398Z,971.42
2018-12-07T05:27:31.438Z,971.39
2018-12-07T05:28:31.387Z,971.40
2018-12-07T05:29:31.388Z,971.42
2018-12-07T05:30:31.414Z,971.38
2018-12-07T05:31:31.385Z,971.40
2018-12-07T05:32:31.384Z,971.47
2018-12-07T05:33:31.382Z,971.44
2018-12-07T05:34:31.383Z,971.44
2018-12-07T05:35:31.431Z,971.45
2018-12-07T05:36:31.387Z,971.46
2018-12-07T05:37:31.376Z,971.45
2018-12-07T05:38:31.379Z,971.43
2018-12-07T05:39:31.375Z,971.40
2018-12-07T05:40:31.372Z,971.38
2018-12-07T05:41:31.539Z,971.36
2018-12-07T05:42:31.368Z,971.38
2018-12-07T05:43:31.367Z,971.32
2018-12-07T05:44:31.369Z,971.38
2018-12-07T05:45:31.367Z,971.37
2018-12-07T05:46:31.404Z,971.35
2018-12-07T05:47:31.360Z,971.38
2018-12-07T05:48:31.362Z,971.37
2018-12-07T05:49:31.358Z,971.39
2018-12-07T05:50:31.356Z,971.41
2018-12-07T05:51:31.382Z,971.33
2018-12-07T05:52:31.351Z,971.30
2018-12-07T05:53:31.345Z,971.30
2018-12-07T05:54:32.301Z,971.28
2018-12-07T05:55:31.402Z,971.23
2018-12-07T05:56:31.382Z,971.28
2018-12-07T05:57:31.345Z,971.29
2018-12-07T05:58:31.345Z,971.39
2018-12-07T05:59:31.340Z,971.32
2018-12-07T06:00:33.765Z,971.32
2018-12-07T06:01:31.367Z,971.27
2018-12-07T06:02:31.357Z,971.23
2018-12-07T06:03:31.333Z,971.27
2018-12-07T06:04:31.337Z,971.28
2018-12-07T06:05:31.331Z,971.29
2018-12-07T06:06:31.359Z,971.32
2018-12-07T06:07:31.360Z,971.31
2018-12-07T06:08:32.314Z,971.37
2018-12-07T06:09:33.374Z,971.42
2018-12-07T06:10:31.323Z,971.45
2018-12-07T06:11:31.323Z,971.43
2018-12-07T06:12:31.350Z,971.40
2018-12-07T06:13:31.329Z,971.44
2018-12-07T06:14:31.315Z,971.37
2018-12-07T06:15:31.314Z,971.37
2018-12-07T06:16:31.314Z,971.30
2018-12-07T06:17:31.346Z,971.38
2018-12-07T06:18:31.312Z,971.37
2018-12-07T06:19:31.313Z,971.29
2018-12-07T06:20:32.174Z,971.24
2018-12-07T06:21:31.332Z,971.29
2018-12-07T06:22:34.511Z,971.30
2018-12-07T06:23:31.398Z,971.28
2018-12-07T06:24:31.300Z,971.25
2018-12-07T06:25:31.300Z,971.23
2018-12-07T06:26:31.305Z,971.29
2018-12-07T06:27:31.324Z,971.28
2018-12-07T06:28:31.293Z,971.26
2018-12-07T06:29:31.293Z,971.27
2018-12-07T06:30:31.295Z,971.22
2018-12-07T06:31:31.289Z,971.25
2018-12-07T06:32:36.126Z,971.25
2018-12-07T06:33:31.287Z,971.25
2018-12-07T06:34:31.274Z,971.10
2018-12-07T06:35:32.922Z,971.24
2018-12-07T06:36:31.282Z,971.22
2018-12-07T06:37:31.315Z,971.19
2018-12-07T06:38:31.254Z,971.26
2018-12-07T06:39:33.168Z,971.20
2018-12-07T06:40:31.282Z,971.18
2018-12-07T06:41:31.273Z,971.17
2018-12-07T06:42:31.301Z,971.19
2018-12-07T06:43:31.269Z,971.20
2018-12-07T06:44:31.269Z,971.18
2018-12-07T06:45:31.270Z,971.15
2018-12-07T06:46:31.269Z,971.17
2018-12-07T06:47:31.296Z,971.10
2018-12-07T06:48:31.266Z,971.11
2018-12-07T06:49:31.261Z,971.09
2018-12-07T06:50:31.254Z,971.09
2018-12-07T06:51:31.255Z,971.07
2018-12-07T06:52:31.287Z,971.10
2018-12-07T06:53:31.253Z,971.03
2018-12-07T06:54:31.254Z,971.04
2018-12-07T06:55:31.253Z,971.05
2018-12-07T06:56:31.249Z,971.03
2018-12-07T06:57:31.277Z,970.98
2018-12-07T06:58:31.249Z,971.06
2018-12-07T06:59:31.251Z,971.01
2018-12-07T07:00:31.242Z,971.03
2018-12-07T07:01:31.244Z,971.00
2018-12-07T07:02:31.269Z,971.03
2018-12-07T07:03:31.239Z,971.03
2018-12-07T07:04:31.242Z,971.04
2018-12-07T07:05:31.235Z,971.04
2018-12-07T07:06:31.234Z,971.04
2018-12-07T07:07:31.258Z,971.03
2018-12-07T07:08:31.230Z,970.98
2018-12-07T07:09:31.231Z,970.99
2018-12-07T07:10:31.226Z,970.99
2018-12-07T07:11:31.239Z,970.97
2018-12-07T07:12:31.259Z,970.96
2018-12-07T07:13:31.223Z,970.92
2018-12-07T07:14:31.221Z,970.88
2018-12-07T07:15:31.218Z,970.86
2018-12-07T07:16:31.219Z,970.92
2018-12-07T07:17:31.246Z,970.91
2018-12-07T07:18:31.219Z,970.90
2018-12-07T07:19:31.214Z,970.83
2018-12-07T07:20:31.209Z,970.83
2018-12-07T07:21:31.212Z,970.82
2018-12-07T07:22:31.247Z,970.79
2018-12-07T07:23:31.241Z,970.78
2018-12-07T07:24:31.226Z,970.78
2018-12-07T07:25:31.216Z,970.81
2018-12-07T07:26:31.199Z,970.80
2018-12-07T07:27:31.359Z,970.85
2018-12-07T07:28:31.268Z,970.84
2018-12-07T07:29:31.209Z,970.83
2018-12-07T07:30:31.214Z,970.80
2018-12-07T07:31:31.198Z,970.81
2018-12-07T07:32:31.209Z,970.70
2018-12-07T07:33:31.224Z,970.76
2018-12-07T07:34:31.382Z,970.75
2018-12-07T07:35:31.187Z,970.69
2018-12-07T07:36:31.342Z,970.65
2018-12-07T07:37:31.223Z,970.58
2018-12-07T07:38:31.193Z,970.58
2018-12-07T07:39:31.298Z,970.52
2018-12-07T07:40:31.208Z,970.46
2018-12-07T07:41:31.224Z,970.44
2018-12-07T07:42:31.222Z,970.42
2018-12-07T07:43:31.192Z,970.38
2018-12-07T07:44:31.265Z,970.38
2018-12-07T07:45:31.255Z,970.36
2018-12-07T07:46:31.218Z,970.38
2018-12-07T07:47:31.312Z,970.40
2018-12-07T07:48:31.225Z,970.39
2018-12-07T07:49:31.208Z,970.35
2018-12-07T07:50:31.182Z,970.35
2018-12-07T07:51:31.174Z,970.32
2018-12-07T07:52:31.165Z,970.36
2018-12-07T07:53:31.195Z,970.37
2018-12-07T07:54:31.158Z,970.36
2018-12-07T07:55:31.152Z,970.34
2018-12-07T07:56:31.160Z,970.27
2018-12-07T07:57:31.146Z,970.29
2018-12-07T07:58:31.173Z,970.28
2018-12-07T07:59:31.151Z,970.29
2018-12-07T08:00:31.144Z,970.31
2018-12-07T08:01:31.141Z,970.23
2018-12-07T08:02:31.143Z,970.26
2018-12-07T08:03:31.169Z,970.28
2018-12-07T08:04:31.133Z,970.27
2018-12-07T08:05:31.140Z,970.29
2018-12-07T08:06:31.133Z,970.29
2018-12-07T08:07:31.161Z,970.29
2018-12-07T08:08:31.130Z,970.29
2018-12-07T08:09:31.156Z,970.28
2018-12-07T08:10:31.124Z,970.26
2018-12-07T08:11:31.125Z,970.30
2018-12-07T08:12:31.134Z,970.25
2018-12-07T08:13:31.121Z,970.24
2018-12-07T08:14:31.173Z,970.22
2018-12-07T08:15:31.117Z,970.18
2018-12-07T08:16:31.117Z,970.19
2018-12-07T08:17:31.120Z,970.12
2018-12-07T08:18:31.113Z,970.17
2018-12-07T08:19:31.137Z,970.20
2018-12-07T08:20:31.120Z,970.15
2018-12-07T08:21:31.105Z,970.15
2018-12-07T08:22:31.106Z,970.16
2018-12-07T08:23:31.108Z,970.19
2018-12-07T08:24:31.131Z,970.21
2018-12-07T08:25:31.101Z,970.14
2018-12-07T08:26:31.101Z,970.13
2018-12-07T08:27:31.098Z,970.13
2018-12-07T08:28:31.094Z,970.03
2018-12-07T08:29:31.119Z,969.97
2018-12-07T08:30:31.090Z,970.02
2018-12-07T08:31:31.090Z,970.03
2018-12-07T08:32:31.089Z,970.04
2018-12-07T08:33:31.086Z,969.98
2018-12-07T08:34:31.110Z,969.98
2018-12-07T08:35:31.078Z,970.01
2018-12-07T08:36:31.081Z,970.00
2018-12-07T08:37:31.066Z,969.95
2018-12-07T08:38:31.079Z,969.94
2018-12-07T08:39:31.154Z,969.92
2018-12-07T08:40:31.074Z,969.92
2018-12-07T08:41:31.075Z,969.87
2018-12-07T08:42:31.070Z,969.90
2018-12-07T08:43:31.070Z,969.83
2018-12-07T08:44:31.098Z,969.88
2018-12-07T08:45:31.069Z,969.90
2018-12-07T08:46:31.067Z,969.86
2018-12-07T08:47:31.095Z,969.85
2018-12-07T08:48:31.064Z,969.82
2018-12-07T08:49:31.087Z,969.79
2018-12-07T08:50:31.054Z,969.73
2018-12-07T08:51:31.059Z,969.74
2018-12-07T08:52:31.091Z,969.70
2018-12-07T08:53:31.064Z,969.74
2018-12-07T08:54:31.054Z,969.71
2018-12-07T08:55:31.083Z,969.65
2018-12-07T08:56:31.051Z,969.67
2018-12-07T08:57:31.046Z,969.70
2018-12-07T08:58:31.047Z,969.67
2018-12-07T08:59:31.070Z,969.67
2018-12-07T09:00:31.042Z,969.67
2018-12-07T09:01:31.040Z,969.66
2018-12-07T09:02:31.039Z,969.63
2018-12-07T09:03:31.040Z,969.62
2018-12-07T09:04:31.066Z,969.67
2018-12-07T09:05:31.039Z,969.70
2018-12-07T09:06:31.035Z,969.67
2018-12-07T09:07:31.027Z,969.65
2018-12-07T09:08:31.032Z,969.68
2018-12-07T09:09:31.056Z,969.67
2018-12-07T09:10:31.029Z,969.66
2018-12-07T09:11:31.027Z,969.63
2018-12-07T09:12:31.025Z,969.59
2018-12-07T09:13:31.108Z,969.57
2018-12-07T09:14:31.022Z,969.61
2018-12-07T09:15:31.056Z,969.53
2018-12-07T09:16:31.020Z,969.58
2018-12-07T09:17:31.018Z,969.52
2018-12-07T09:18:31.020Z,969.55
2018-12-07T09:19:31.017Z,969.52
2018-12-07T09:20:31.037Z,969.52
2018-12-07T09:21:31.012Z,969.53
2018-12-07T09:22:31.007Z,969.46
2018-12-07T09:23:31.007Z,969.47
2018-12-07T09:24:31.008Z,969.46
2018-12-07T09:25:31.041Z,969.45
2018-12-07T09:26:31.004Z,969.48
2018-12-07T09:27:31.033Z,969.44
2018-12-07T09:28:31.001Z,969.39
2018-12-07T09:29:31.002Z,969.36
2018-12-07T09:30:31.029Z,969.37
2018-12-07T09:31:31.001Z,969.26
2018-12-07T09:32:30.996Z,969.27
2018-12-07T09:33:30.996Z,969.24
2018-12-07T09:34:31.057Z,969.21
2018-12-07T09:35:31.022Z,969.23
2018-12-07T09:36:30.988Z,969.17
2018-12-07T09:37:30.990Z,969.14
2018-12-07T09:38:30.982Z,969.13
2018-12-07T09:39:31.026Z,969.12
2018-12-07T09:40:30.989Z,969.11
2018-12-07T09:41:30.981Z,969.07
2018-12-07T09:42:30.985Z,969.14
2018-12-07T09:43:31.036Z,969.08
2018-12-07T09:44:30.980Z,969.01
2018-12-07T09:45:31.005Z,969.10
2018-12-07T09:46:30.971Z,969.07
2018-12-07T09:47:30.976Z,969.04
2018-12-07T09:48:30.971Z,969.04
2018-12-07T09:49:30.965Z,969.02
2018-12-07T09:50:30.997Z,969.03
2018-12-07T09:51:30.971Z,969.03
2018-12-07T09:52:30.969Z,969.00
2018-12-07T09:53:30.965Z,969.03
2018-12-07T09:54:30.970Z,968.99
2018-12-07T09:55:30.993Z,968.97
2018-12-07T09:56:30.964Z,969.00
2018-12-07T09:57:30.963Z,968.96
2018-12-07T09:58:32.685Z,968.99
2018-12-07T09:59:35.703Z,968.95
2018-12-07T10:00:32.545Z,968.95
2018-12-07T10:01:30.956Z,968.97
2018-12-07T10:02:30.953Z,968.77
2018-12-07T10:03:31.821Z,968.89
2018-12-07T10:04:35.186Z,968.89
2018-12-07T10:05:31.686Z,968.85
2018-12-07T10:06:30.975Z,968.89
2018-12-07T10:07:32.188Z,968.74
2018-12-07T10:08:31.820Z,968.82
2018-12-07T10:09:30.942Z,968.82
2018-12-07T10:10:31.986Z,968.80
2018-12-07T10:11:31.054Z,968.79
2018-12-07T10:12:30.946Z,968.81
2018-12-07T10:13:30.969Z,968.78
2018-12-07T10:14:34.020Z,968.81
2018-12-07T10:15:33.753Z,968.72
2018-12-07T10:16:30.937Z,968.74
2018-12-07T10:17:30.968Z,968.72
2018-12-07T10:18:30.935Z,968.69
2018-12-07T10:19:30.933Z,968.71
2018-12-07T10:20:30.931Z,968.64
2018-12-07T10:21:30.931Z,968.64
2018-12-07T10:22:30.959Z,968.66
2018-12-07T10:23:30.931Z,968.61
2018-12-07T10:24:30.960Z,968.62
2018-12-07T10:25:30.933Z,968.59
2018-12-07T10:26:30.992Z,968.56
2018-12-07T10:27:32.193Z,968.51
2018-12-07T10:28:30.949Z,968.52
2018-12-07T10:29:30.917Z,968.46
2018-12-07T10:30:30.924Z,968.49
2018-12-07T10:31:30.938Z,968.43
2018-12-07T10:32:30.948Z,968.44
2018-12-07T10:33:30.916Z,968.34
2018-12-07T10:34:30.916Z,968.34
2018-12-07T10:35:30.920Z,968.32
2018-12-07T10:36:30.945Z,968.31
2018-12-07T10:37:30.915Z,968.33
2018-12-07T10:38:30.953Z,968.30
2018-12-07T10:39:31.109Z,968.23
2018-12-07T10:40:32.163Z,968.18
2018-12-07T10:41:30.945Z,968.19
2018-12-07T10:42:31.082Z,968.17
2018-12-07T10:43:30.934Z,968.10
2018-12-07T10:44:30.918Z,968.11
2018-12-07T10:45:30.954Z,968.09
2018-12-07T10:46:30.924Z,968.03
2018-12-07T10:47:30.918Z,968.07
2018-12-07T10:48:30.941Z,968.04
2018-12-07T10:49:30.902Z,968.03
2018-12-07T10:50:30.897Z,968.01
2018-12-07T10:51:30.897Z,968.07
2018-12-07T10:52:30.942Z,968.03
2018-12-07T10:53:30.911Z,968.04
2018-12-07T10:54:30.896Z,968.06
2018-12-07T10:55:30.894Z,968.04
2018-12-07T10:56:30.893Z,967.94
2018-12-07T10:57:30.919Z,968.00
2018-12-07T10:58:35.691Z,967.97
2018-12-07T10:59:30.889Z,967.95
2018-12-07T11:00:30.889Z,967.84
2018-12-07T11:01:30.891Z,967.89
2018-12-07T11:02:30.914Z,967.85
2018-12-07T11:03:30.888Z,967.84
2018-12-07T11:04:30.885Z,967.82
2018-12-07T11:05:30.884Z,967.80
2018-12-07T11:06:30.875Z,967.83
2018-12-07T11:07:30.906Z,967.79
2018-12-07T11:08:30.914Z,967.78
2018-12-07T11:09:30.892Z,967.80
2018-12-07T11:10:30.905Z,967.79
2018-12-07T11:11:30.871Z,967.72
2018-12-07T11:12:30.898Z,967.79
2018-12-07T11:13:30.871Z,967.72
2018-12-07T11:14:30.872Z,967.77
2018-12-07T11:15:30.867Z,967.79
2018-12-07T11:16:30.872Z,967.71
2018-12-07T11:17:30.891Z,967.75
2018-12-07T11:18:30.865Z,967.73
2018-12-07T11:19:30.857Z,967.68
2018-12-07T11:20:30.861Z,967.68
2018-12-07T11:21:30.887Z,967.68
2018-12-07T11:22:30.849Z,967.68
2018-12-07T11:23:30.852Z,967.67
2018-12-07T11:24:30.878Z,967.65
2018-12-07T11:25:30.851Z,967.61
2018-12-07T11:26:30.848Z,967.57
2018-12-07T11:27:30.879Z,967.54
2018-12-07T11:28:30.848Z,967.58
2018-12-07T11:29:30.843Z,967.55
2018-12-07T11:30:30.842Z,967.53
2018-12-07T11:31:30.841Z,967.54
2018-12-07T11:32:30.864Z,967.47
2018-12-07T11:33:30.836Z,967.39
2018-12-07T11:34:30.835Z,967.48
2018-12-07T11:35:30.854Z,967.43
2018-12-07T11:36:30.860Z,967.40
2018-12-07T11:37:30.830Z,967.39
2018-12-07T11:38:30.825Z,967.43
2018-12-07T11:39:30.829Z,967.46
2018-12-07T11:40:30.821Z,967.46
2018-12-07T11:41:30.852Z,967.43
2018-12-07T11:42:30.822Z,967.41
2018-12-07T11:43:30.820Z,967.44
2018-12-07T11:44:30.847Z,967.41
2018-12-07T11:45:30.816Z,967.42
2018-12-07T11:46:30.817Z,967.48
2018-12-07T11:47:51.849Z,967.43
2018-12-07T11:48:30.813Z,967.47
2018-12-07T11:49:30.808Z,967.43
2018-12-07T11:50:30.810Z,967.45
2018-12-07T11:51:32.745Z,967.40
2018-12-07T11:52:30.837Z,967.37
2018-12-07T11:53:30.806Z,967.33
2018-12-07T11:54:30.802Z,967.37
2018-12-07T11:55:30.803Z,967.37
2018-12-07T11:56:30.802Z,967.36
2018-12-07T11:57:30.822Z,967.26
2018-12-07T11:58:30.791Z,967.36
2018-12-07T11:59:30.793Z,967.37
2018-12-07T12:00:30.793Z,967.34
2018-12-07T12:01:31.773Z,967.25
2018-12-07T12:02:31.540Z,967.27
2018-12-07T12:03:30.787Z,967.27
2018-12-07T12:04:30.785Z,967.21
2018-12-07T12:05:30.787Z,967.20
2018-12-07T12:06:30.786Z,967.16
2018-12-07T12:07:30.813Z,967.16
2018-12-07T12:08:30.788Z,967.16
2018-12-07T12:09:30.799Z,967.16
2018-12-07T12:10:30.812Z,967.13
2018-12-07T12:11:30.781Z,967.09
2018-12-07T12:12:30.813Z,967.16
2018-12-07T12:13:30.773Z,967.12
2018-12-07T12:14:30.774Z,967.12
2018-12-07T12:15:30.769Z,967.01
2018-12-07T12:16:30.770Z,967.08
2018-12-07T12:17:30.794Z,967.11
2018-12-07T12:18:30.767Z,966.97
2018-12-07T12:19:30.767Z,967.00
2018-12-07T12:20:30.763Z,967.01
2018-12-07T12:21:30.764Z,966.96
2018-12-07T12:22:30.791Z,967.00
2018-12-07T12:23:30.764Z,966.88
2018-12-07T12:24:30.762Z,966.95
2018-12-07T12:25:30.759Z,966.93
2018-12-07T12:26:30.761Z,966.90
2018-12-07T12:27:30.783Z,966.89
2018-12-07T12:28:30.764Z,966.87